sensor_id;sensor_type;location;lat;lon;timestamp;P1;durP1;ratioP1;P2;durP2;ratioP2
29238;SDS011;16267;48.194;11.546;2023-05-10T00:00:21;3.63;;;0.70;;
29238;SDS011;16267;48.194;11.546;2023-05-10T00:02:47;1.83;;;0.80;;
29238;SDS011;16267;48.194;11.546;2023-05-10T00:05:13;1.40;;;0.90;;
29238;SDS011;16267;48.194;11.546;2023-05-10T00:07:39;1.60;;;0.88;;
29238;SDS011;16267;48.194;11.546;2023-05-10T00:10:05;2.97;;;0.90;;
29238;SDS011;16267;48.194;11.546;2023-05-10T00:12:31;1.55;;;0.68;;
29238;SDS011;16267;48.194;11.546;2023-05-10T00:14:57;1.77;;;1.00;;
29238;SDS011;16267;48.194;11.546;2023-05-10T00:17:23;2.90;;;1.33;;
29238;SDS011;16267;48.194;11.546;2023-05-10T00:19:48;1.33;;;0.80;;
29238;SDS011;16267;48.194;11.546;2023-05-10T00:22:14;1.20;;;0.63;;
29238;SDS011;16267;48.194;11.546;2023-05-10T00:24:40;4.20;;;0.95;;
29238;SDS011;16267;48.194;11.546;2023-05-10T00:27:05;2.22;;;0.93;;
29238;SDS011;16267;48.194;11.546;2023-05-10T00:29:31;1.17;;;0.68;;
29238;SDS011;16267;48.194;11.546;2023-05-10T00:31:58;4.05;;;1.30;;
29238;SDS011;16267;48.194;11.546;2023-05-10T00:34:24;1.67;;;0.90;;
29238;SDS011;16267;48.194;11.546;2023-05-10T00:36:50;2.95;;;0.70;;
29238;SDS011;16267;48.194;11.546;2023-05-10T00:39:16;2.97;;;0.80;;
29238;SDS011;16267;48.194;11.546;2023-05-10T00:41:41;1.25;;;0.50;;
29238;SDS011;16267;48.194;11.546;2023-05-10T00:44:07;3.72;;;0.95;;
29238;SDS011;16267;48.194;11.546;2023-05-10T00:46:34;1.50;;;0.60;;
29238;SDS011;16267;48.194;11.546;2023-05-10T00:49:00;1.52;;;0.60;;
29238;SDS011;16267;48.194;11.546;2023-05-10T00:51:27;2.15;;;0.70;;
29238;SDS011;16267;48.194;11.546;2023-05-10T00:53:52;1.52;;;0.68;;
29238;SDS011;16267;48.194;11.546;2023-05-10T00:56:19;0.93;;;0.60;;
29238;SDS011;16267;48.194;11.546;2023-05-10T00:58:47;2.83;;;0.60;;
29238;SDS011;16267;48.194;11.546;2023-05-10T01:01:14;1.35;;;0.60;;
29238;SDS011;16267;48.194;11.546;2023-05-10T01:03:41;1.67;;;0.70;;
29238;SDS011;16267;48.194;11.546;2023-05-10T01:06:07;2.20;;;0.50;;
29238;SDS011;16267;48.194;11.546;2023-05-10T01:08:38;1.27;;;0.50;;
29238;SDS011;16267;48.194;11.546;2023-05-10T01:11:04;1.70;;;0.47;;
29238;SDS011;16267;48.194;11.546;2023-05-10T01:13:31;1.20;;;0.60;;
29238;SDS011;16267;48.194;11.546;2023-05-10T01:16:03;2.47;;;0.45;;
29238;SDS011;16267;48.194;11.546;2023-05-10T01:18:33;5.28;;;0.80;;
29238;SDS011;16267;48.194;11.546;2023-05-10T01:21:27;1.27;;;0.45;;
29238;SDS011;16267;48.194;11.546;2023-05-10T01:32:45;1.80;;;0.40;;
29238;SDS011;16267;48.194;11.546;2023-05-10T01:35:28;0.35;;;0.35;;
29238;SDS011;16267;48.194;11.546;2023-05-10T01:43:33;0.90;;;0.50;;
29238;SDS011;16267;48.194;11.546;2023-05-10T01:46:27;1.80;;;0.50;;
29238;SDS011;16267;48.194;11.546;2023-05-10T01:49:01;4.03;;;0.45;;
29238;SDS011;16267;48.194;11.546;2023-05-10T01:51:38;1.13;;;0.45;;
29238;SDS011;16267;48.194;11.546;2023-05-10T01:54:17;0.75;;;0.30;;
29238;SDS011;16267;48.194;11.546;2023-05-10T01:56:45;1.00;;;0.40;;
29238;SDS011;16267;48.194;11.546;2023-05-10T01:59:18;4.18;;;0.40;;
29238;SDS011;16267;48.194;11.546;2023-05-10T02:01:45;1.90;;;0.50;;
29238;SDS011;16267;48.194;11.546;2023-05-10T02:04:14;2.38;;;0.40;;
29238;SDS011;16267;48.194;11.546;2023-05-10T02:06:43;5.65;;;0.65;;
29238;SDS011;16267;48.194;11.546;2023-05-10T02:09:10;0.20;;;0.20;;
29238;SDS011;16267;48.194;11.546;2023-05-10T02:11:38;0.30;;;0.30;;
29238;SDS011;16267;48.194;11.546;2023-05-10T02:14:07;0.95;;;0.60;;
29238;SDS011;16267;48.194;11.546;2023-05-10T02:16:38;1.50;;;0.43;;
29238;SDS011;16267;48.194;11.546;2023-05-10T02:19:05;0.93;;;0.30;;
29238;SDS011;16267;48.194;11.546;2023-05-10T02:21:33;0.52;;;0.38;;
29238;SDS011;16267;48.194;11.546;2023-05-10T02:24:01;1.23;;;0.40;;
29238;SDS011;16267;48.194;11.546;2023-05-10T02:26:29;13.63;;;0.80;;
29238;SDS011;16267;48.194;11.546;2023-05-10T02:28:58;1.08;;;0.40;;
29238;SDS011;16267;48.194;11.546;2023-05-10T02:31:28;2.05;;;0.40;;
29238;SDS011;16267;48.194;11.546;2023-05-10T02:33:57;1.77;;;0.60;;
29238;SDS011;16267;48.194;11.546;2023-05-10T02:36:26;0.50;;;0.40;;
29238;SDS011;16267;48.194;11.546;2023-05-10T02:38:52;1.27;;;0.40;;
29238;SDS011;16267;48.194;11.546;2023-05-10T02:41:19;0.40;;;0.40;;
29238;SDS011;16267;48.194;11.546;2023-05-10T02:43:50;0.90;;;0.30;;
29238;SDS011;16267;48.194;11.546;2023-05-10T02:46:17;0.35;;;0.30;;
29238;SDS011;16267;48.194;11.546;2023-05-10T02:48:43;2.35;;;0.43;;
29238;SDS011;16267;48.194;11.546;2023-05-10T02:51:09;0.30;;;0.30;;
29238;SDS011;16267;48.194;11.546;2023-05-10T02:53:42;1.00;;;0.40;;
29238;SDS011;16267;48.194;11.546;2023-05-10T02:56:15;0.60;;;0.40;;
29238;SDS011;16267;48.194;11.546;2023-05-10T02:58:56;0.88;;;0.40;;
29238;SDS011;16267;48.194;11.546;2023-05-10T03:01:22;0.52;;;0.30;;
29238;SDS011;16267;48.194;11.546;2023-05-10T03:04:00;0.63;;;0.32;;
29238;SDS011;16267;48.194;11.546;2023-05-10T03:06:25;2.40;;;0.40;;
29238;SDS011;16267;48.194;11.546;2023-05-10T03:08:52;0.32;;;0.32;;
29238;SDS011;16267;48.194;11.546;2023-05-10T03:17:47;0.90;;;0.50;;
29238;SDS011;16267;48.194;11.546;2023-05-10T03:20:35;2.92;;;0.50;;
29238;SDS011;16267;48.194;11.546;2023-05-10T03:23:13;0.40;;;0.30;;
29238;SDS011;16267;48.194;11.546;2023-05-10T03:25:52;1.25;;;0.40;;
29238;SDS011;16267;48.194;11.546;2023-05-10T03:28:19;0.93;;;0.35;;
29238;SDS011;16267;48.194;11.546;2023-05-10T03:30:47;0.55;;;0.40;;
29238;SDS011;16267;48.194;11.546;2023-05-10T03:33:13;0.77;;;0.30;;
29238;SDS011;16267;48.194;11.546;2023-05-10T03:35:39;4.50;;;0.43;;
29238;SDS011;16267;48.194;11.546;2023-05-10T03:38:05;0.47;;;0.30;;
29238;SDS011;16267;48.194;11.546;2023-05-10T03:40:30;0.63;;;0.40;;
29238;SDS011;16267;48.194;11.546;2023-05-10T03:43:00;2.50;;;0.50;;
29238;SDS011;16267;48.194;11.546;2023-05-10T03:45:27;2.28;;;0.40;;
29238;SDS011;16267;48.194;11.546;2023-05-10T03:47:53;0.77;;;0.30;;
29238;SDS011;16267;48.194;11.546;2023-05-10T03:50:19;0.75;;;0.30;;
29238;SDS011;16267;48.194;11.546;2023-05-10T03:52:48;4.60;;;0.45;;
29238;SDS011;16267;48.194;11.546;2023-05-10T03:55:13;0.75;;;0.43;;
29238;SDS011;16267;48.194;11.546;2023-05-10T03:57:39;1.92;;;0.50;;
29238;SDS011;16267;48.194;11.546;2023-05-10T04:00:05;0.63;;;0.35;;
29238;SDS011;16267;48.194;11.546;2023-05-10T04:02:32;3.17;;;0.50;;
29238;SDS011;16267;48.194;11.546;2023-05-10T04:04:57;0.35;;;0.30;;
29238;SDS011;16267;48.194;11.546;2023-05-10T04:07:23;3.20;;;0.40;;
29238;SDS011;16267;48.194;11.546;2023-05-10T04:09:49;1.33;;;0.40;;
29238;SDS011;16267;48.194;11.546;2023-05-10T04:12:15;0.43;;;0.30;;
29238;SDS011;16267;48.194;11.546;2023-05-10T04:14:41;0.38;;;0.25;;
29238;SDS011;16267;48.194;11.546;2023-05-10T04:17:06;0.32;;;0.30;;
29238;SDS011;16267;48.194;11.546;2023-05-10T04:19:32;2.90;;;0.32;;
29238;SDS011;16267;48.194;11.546;2023-05-10T04:21:58;2.83;;;0.30;;
29238;SDS011;16267;48.194;11.546;2023-05-10T04:24:24;0.80;;;0.40;;
29238;SDS011;16267;48.194;11.546;2023-05-10T04:26:50;0.75;;;0.50;;
29238;SDS011;16267;48.194;11.546;2023-05-10T04:29:16;0.73;;;0.30;;
29238;SDS011;16267;48.194;11.546;2023-05-10T04:31:42;1.30;;;0.30;;
29238;SDS011;16267;48.194;11.546;2023-05-10T04:34:08;0.52;;;0.40;;
29238;SDS011;16267;48.194;11.546;2023-05-10T04:36:33;0.77;;;0.30;;
29238;SDS011;16267;48.194;11.546;2023-05-10T04:39:01;0.65;;;0.30;;
29238;SDS011;16267;48.194;11.546;2023-05-10T04:41:28;0.80;;;0.30;;
29238;SDS011;16267;48.194;11.546;2023-05-10T04:43:57;0.40;;;0.30;;
29238;SDS011;16267;48.194;11.546;2023-05-10T04:46:23;3.00;;;0.55;;
29238;SDS011;16267;48.194;11.546;2023-05-10T04:48:49;2.25;;;0.30;;
29238;SDS011;16267;48.194;11.546;2023-05-10T04:51:14;1.27;;;0.40;;
29238;SDS011;16267;48.194;11.546;2023-05-10T04:53:40;0.82;;;0.30;;
29238;SDS011;16267;48.194;11.546;2023-05-10T04:56:06;2.22;;;0.40;;
29238;SDS011;16267;48.194;11.546;2023-05-10T04:58:32;1.13;;;0.30;;
29238;SDS011;16267;48.194;11.546;2023-05-10T05:01:04;2.45;;;0.30;;
29238;SDS011;16267;48.194;11.546;2023-05-10T05:03:32;2.22;;;0.30;;
29238;SDS011;16267;48.194;11.546;2023-05-10T05:05:58;6.18;;;0.65;;
29238;SDS011;16267;48.194;11.546;2023-05-10T05:08:24;0.75;;;0.30;;
29238;SDS011;16267;48.194;11.546;2023-05-10T05:10:50;1.77;;;0.45;;
29238;SDS011;16267;48.194;11.546;2023-05-10T05:13:16;2.85;;;0.40;;
29238;SDS011;16267;48.194;11.546;2023-05-10T05:15:41;1.70;;;0.65;;
29238;SDS011;16267;48.194;11.546;2023-05-10T05:18:07;0.75;;;0.40;;
29238;SDS011;16267;48.194;11.546;2023-05-10T05:20:33;2.25;;;0.45;;
29238;SDS011;16267;48.194;11.546;2023-05-10T05:22:59;0.45;;;0.30;;
29238;SDS011;16267;48.194;11.546;2023-05-10T05:25:25;2.38;;;0.30;;
29238;SDS011;16267;48.194;11.546;2023-05-10T05:27:51;0.65;;;0.30;;
29238;SDS011;16267;48.194;11.546;2023-05-10T05:30:17;0.70;;;0.30;;
29238;SDS011;16267;48.194;11.546;2023-05-10T05:32:42;4.38;;;0.30;;
29238;SDS011;16267;48.194;11.546;2023-05-10T05:35:08;1.88;;;0.40;;
29238;SDS011;16267;48.194;11.546;2023-05-10T05:37:34;3.08;;;0.40;;
29238;SDS011;16267;48.194;11.546;2023-05-10T05:40:00;3.45;;;0.38;;
29238;SDS011;16267;48.194;11.546;2023-05-10T05:42:26;3.10;;;0.43;;
29238;SDS011;16267;48.194;11.546;2023-05-10T05:44:52;3.33;;;0.70;;
29238;SDS011;16267;48.194;11.546;2023-05-10T05:47:18;2.63;;;0.60;;
29238;SDS011;16267;48.194;11.546;2023-05-10T05:49:44;1.23;;;0.82;;
29238;SDS011;16267;48.194;11.546;2023-05-10T05:52:12;10.25;;;0.70;;
29238;SDS011;16267;48.194;11.546;2023-05-10T05:54:38;1.00;;;0.40;;
29238;SDS011;16267;48.194;11.546;2023-05-10T05:57:04;2.10;;;0.60;;
29238;SDS011;16267;48.194;11.546;2023-05-10T05:59:30;2.60;;;0.47;;
29238;SDS011;16267;48.194;11.546;2023-05-10T06:01:56;1.88;;;0.45;;
29238;SDS011;16267;48.194;11.546;2023-05-10T06:04:22;3.33;;;0.73;;
29238;SDS011;16267;48.194;11.546;2023-05-10T06:06:47;2.58;;;0.50;;
29238;SDS011;16267;48.194;11.546;2023-05-10T06:09:13;5.35;;;0.47;;
29238;SDS011;16267;48.194;11.546;2023-05-10T06:11:39;3.72;;;0.50;;
29238;SDS011;16267;48.194;11.546;2023-05-10T06:14:05;1.10;;;0.60;;
29238;SDS011;16267;48.194;11.546;2023-05-10T06:16:32;3.92;;;0.73;;
29238;SDS011;16267;48.194;11.546;2023-05-10T06:18:59;4.13;;;1.60;;
29238;SDS011;16267;48.194;11.546;2023-05-10T06:21:24;2.25;;;0.60;;
29238;SDS011;16267;48.194;11.546;2023-05-10T06:23:50;1.52;;;0.60;;
29238;SDS011;16267;48.194;11.546;2023-05-10T06:26:16;5.20;;;0.73;;
29238;SDS011;16267;48.194;11.546;2023-05-10T06:28:42;2.20;;;0.40;;
29238;SDS011;16267;48.194;11.546;2023-05-10T06:31:07;1.83;;;0.80;;
29238;SDS011;16267;48.194;11.546;2023-05-10T06:33:33;1.50;;;0.60;;
29238;SDS011;16267;48.194;11.546;2023-05-10T06:35:59;11.88;;;1.20;;
29238;SDS011;16267;48.194;11.546;2023-05-10T06:38:25;1.05;;;0.80;;
29238;SDS011;16267;48.194;11.546;2023-05-10T06:40:51;1.38;;;0.63;;
29238;SDS011;16267;48.194;11.546;2023-05-10T06:43:17;4.38;;;0.50;;
29238;SDS011;16267;48.194;11.546;2023-05-10T06:45:42;2.00;;;0.63;;
29238;SDS011;16267;48.194;11.546;2023-05-10T06:48:08;0.70;;;0.52;;
29238;SDS011;16267;48.194;11.546;2023-05-10T06:50:34;1.80;;;0.40;;
29238;SDS011;16267;48.194;11.546;2023-05-10T06:53:09;3.22;;;0.60;;
29238;SDS011;16267;48.194;11.546;2023-05-10T06:55:36;1.30;;;0.57;;
29238;SDS011;16267;48.194;11.546;2023-05-10T06:58:02;5.25;;;1.00;;
29238;SDS011;16267;48.194;11.546;2023-05-10T07:00:28;2.38;;;0.80;;
29238;SDS011;16267;48.194;11.546;2023-05-10T07:02:54;1.20;;;0.65;;
29238;SDS011;16267;48.194;11.546;2023-05-10T07:05:20;0.65;;;0.40;;
29238;SDS011;16267;48.194;11.546;2023-05-10T07:07:46;0.50;;;0.40;;
29238;SDS011;16267;48.194;11.546;2023-05-10T07:10:11;1.92;;;0.70;;
29238;SDS011;16267;48.194;11.546;2023-05-10T07:12:37;4.22;;;0.80;;
29238;SDS011;16267;48.194;11.546;2023-05-10T07:15:03;2.92;;;0.50;;
29238;SDS011;16267;48.194;11.546;2023-05-10T07:17:30;3.35;;;0.60;;
29238;SDS011;16267;48.194;11.546;2023-05-10T07:19:56;0.93;;;0.60;;
29238;SDS011;16267;48.194;11.546;2023-05-10T07:22:21;0.50;;;0.50;;
29238;SDS011;16267;48.194;11.546;2023-05-10T07:24:47;2.72;;;0.80;;
29238;SDS011;16267;48.194;11.546;2023-05-10T07:27:13;7.72;;;2.53;;
29238;SDS011;16267;48.194;11.546;2023-05-10T07:29:39;2.17;;;1.13;;
29238;SDS011;16267;48.194;11.546;2023-05-10T07:32:04;1.02;;;0.73;;
29238;SDS011;16267;48.194;11.546;2023-05-10T07:34:30;2.42;;;0.80;;
29238;SDS011;16267;48.194;11.546;2023-05-10T07:36:59;1.30;;;0.63;;
29238;SDS011;16267;48.194;11.546;2023-05-10T07:39:26;1.30;;;0.70;;
29238;SDS011;16267;48.194;11.546;2023-05-10T07:41:52;0.57;;;0.50;;
29238;SDS011;16267;48.194;11.546;2023-05-10T07:44:19;3.00;;;0.80;;
29238;SDS011;16267;48.194;11.546;2023-05-10T07:46:45;2.97;;;0.80;;
29238;SDS011;16267;48.194;11.546;2023-05-10T07:49:12;2.30;;;0.98;;
29238;SDS011;16267;48.194;11.546;2023-05-10T07:51:41;1.88;;;0.80;;
29238;SDS011;16267;48.194;11.546;2023-05-10T07:54:07;3.05;;;0.68;;
29238;SDS011;16267;48.194;11.546;2023-05-10T07:56:33;1.65;;;0.60;;
29238;SDS011;16267;48.194;11.546;2023-05-10T07:58:59;1.95;;;0.70;;
29238;SDS011;16267;48.194;11.546;2023-05-10T08:01:26;6.93;;;0.73;;
29238;SDS011;16267;48.194;11.546;2023-05-10T08:03:55;1.08;;;0.70;;
29238;SDS011;16267;48.194;11.546;2023-05-10T08:06:20;3.67;;;0.80;;
29238;SDS011;16267;48.194;11.546;2023-05-10T08:08:47;1.85;;;0.80;;
29238;SDS011;16267;48.194;11.546;2023-05-10T08:11:18;0.82;;;0.60;;
29238;SDS011;16267;48.194;11.546;2023-05-10T08:13:45;1.23;;;0.77;;
29238;SDS011;16267;48.194;11.546;2023-05-10T08:16:13;4.00;;;0.90;;
29238;SDS011;16267;48.194;11.546;2023-05-10T08:18:39;3.50;;;0.90;;
29238;SDS011;16267;48.194;11.546;2023-05-10T08:21:05;0.75;;;0.60;;
29238;SDS011;16267;48.194;11.546;2023-05-10T08:23:31;5.90;;;0.80;;
29238;SDS011;16267;48.194;11.546;2023-05-10T08:25:57;2.08;;;0.50;;
29238;SDS011;16267;48.194;11.546;2023-05-10T08:28:22;2.92;;;0.60;;
29238;SDS011;16267;48.194;11.546;2023-05-10T08:30:49;5.30;;;0.57;;
29238;SDS011;16267;48.194;11.546;2023-05-10T08:33:15;5.20;;;0.70;;
29238;SDS011;16267;48.194;11.546;2023-05-10T08:35:43;3.42;;;0.60;;
29238;SDS011;16267;48.194;11.546;2023-05-10T08:38:09;1.23;;;0.60;;
29238;SDS011;16267;48.194;11.546;2023-05-10T08:40:36;0.95;;;0.60;;
29238;SDS011;16267;48.194;11.546;2023-05-10T08:43:06;0.75;;;0.50;;
29238;SDS011;16267;48.194;11.546;2023-05-10T08:45:39;0.68;;;0.68;;
29238;SDS011;16267;48.194;11.546;2023-05-10T08:48:07;3.33;;;0.68;;
29238;SDS011;16267;48.194;11.546;2023-05-10T08:50:35;4.75;;;0.90;;
29238;SDS011;16267;48.194;11.546;2023-05-10T08:53:09;1.77;;;0.85;;
29238;SDS011;16267;48.194;11.546;2023-05-10T08:55:37;1.48;;;0.63;;
29238;SDS011;16267;48.194;11.546;2023-05-10T08:58:05;1.05;;;0.50;;
29238;SDS011;16267;48.194;11.546;2023-05-10T09:00:31;1.38;;;0.50;;
29238;SDS011;16267;48.194;11.546;2023-05-10T09:02:58;0.93;;;0.57;;
29238;SDS011;16267;48.194;11.546;2023-05-10T09:05:25;2.63;;;0.70;;
29238;SDS011;16267;48.194;11.546;2023-05-10T09:07:51;5.13;;;0.77;;
29238;SDS011;16267;48.194;11.546;2023-05-10T09:10:17;6.35;;;0.77;;
29238;SDS011;16267;48.194;11.546;2023-05-10T09:12:44;2.70;;;0.57;;
29238;SDS011;16267;48.194;11.546;2023-05-10T09:15:11;3.25;;;0.50;;
29238;SDS011;16267;48.194;11.546;2023-05-10T09:17:40;1.58;;;0.57;;
29238;SDS011;16267;48.194;11.546;2023-05-10T09:20:07;1.45;;;0.50;;
29238;SDS011;16267;48.194;11.546;2023-05-10T09:22:33;1.48;;;0.50;;
29238;SDS011;16267;48.194;11.546;2023-05-10T09:25:03;0.88;;;0.38;;
29238;SDS011;16267;48.194;11.546;2023-05-10T09:27:38;0.68;;;0.50;;
29238;SDS011;16267;48.194;11.546;2023-05-10T09:30:10;4.15;;;0.77;;
29238;SDS011;16267;48.194;11.546;2023-05-10T09:32:58;1.20;;;0.45;;
29238;SDS011;16267;48.194;11.546;2023-05-10T09:35:25;2.92;;;0.73;;
29238;SDS011;16267;48.194;11.546;2023-05-10T09:37:59;1.50;;;0.47;;
29238;SDS011;16267;48.194;11.546;2023-05-10T09:40:28;1.77;;;0.50;;
29238;SDS011;16267;48.194;11.546;2023-05-10T09:45:29;6.07;;;0.73;;
29238;SDS011;16267;48.194;11.546;2023-05-10T09:47:57;3.20;;;0.55;;
29238;SDS011;16267;48.194;11.546;2023-05-10T09:50:24;4.75;;;0.63;;
29238;SDS011;16267;48.194;11.546;2023-05-10T09:52:54;4.72;;;0.60;;
29238;SDS011;16267;48.194;11.546;2023-05-10T09:55:26;5.32;;;0.70;;
29238;SDS011;16267;48.194;11.546;2023-05-10T09:58:15;2.08;;;0.40;;
29238;SDS011;16267;48.194;11.546;2023-05-10T10:00:44;1.52;;;0.63;;
29238;SDS011;16267;48.194;11.546;2023-05-10T10:03:17;1.75;;;0.47;;
29238;SDS011;16267;48.194;11.546;2023-05-10T10:05:45;4.22;;;0.68;;
29238;SDS011;16267;48.194;11.546;2023-05-10T10:08:12;2.38;;;0.52;;
29238;SDS011;16267;48.194;11.546;2023-05-10T10:10:40;2.15;;;0.60;;
29238;SDS011;16267;48.194;11.546;2023-05-10T10:13:07;1.33;;;0.60;;
29238;SDS011;16267;48.194;11.546;2023-05-10T10:15:33;2.63;;;0.60;;
29238;SDS011;16267;48.194;11.546;2023-05-10T10:17:59;0.63;;;0.40;;
29238;SDS011;16267;48.194;11.546;2023-05-10T10:20:26;1.63;;;0.40;;
29238;SDS011;16267;48.194;11.546;2023-05-10T10:22:53;1.55;;;0.57;;
29238;SDS011;16267;48.194;11.546;2023-05-10T10:25:19;2.67;;;0.88;;
29238;SDS011;16267;48.194;11.546;2023-05-10T10:30:39;1.33;;;0.70;;
29238;SDS011;16267;48.194;11.546;2023-05-10T10:36:33;2.88;;;0.85;;
29238;SDS011;16267;48.194;11.546;2023-05-10T10:39:10;5.03;;;0.90;;
29238;SDS011;16267;48.194;11.546;2023-05-10T10:41:38;3.97;;;0.73;;
29238;SDS011;16267;48.194;11.546;2023-05-10T10:47:33;1.60;;;0.70;;
29238;SDS011;16267;48.194;11.546;2023-05-10T10:57:51;2.53;;;0.40;;
29238;SDS011;16267;48.194;11.546;2023-05-10T11:00:29;2.35;;;0.60;;
29238;SDS011;16267;48.194;11.546;2023-05-10T11:03:11;0.98;;;0.60;;
29238;SDS011;16267;48.194;11.546;2023-05-10T11:05:47;1.85;;;0.68;;
29238;SDS011;16267;48.194;11.546;2023-05-10T11:08:30;2.08;;;0.85;;
29238;SDS011;16267;48.194;11.546;2023-05-10T11:13:57;2.60;;;0.70;;
29238;SDS011;16267;48.194;11.546;2023-05-10T11:21:29;2.35;;;0.60;;
29238;SDS011;16267;48.194;11.546;2023-05-10T11:23:57;1.77;;;0.60;;
29238;SDS011;16267;48.194;11.546;2023-05-10T11:26:31;2.65;;;1.00;;
29238;SDS011;16267;48.194;11.546;2023-05-10T11:29:00;4.45;;;1.00;;
29238;SDS011;16267;48.194;11.546;2023-05-10T11:31:26;2.35;;;0.80;;
29238;SDS011;16267;48.194;11.546;2023-05-10T11:33:54;5.35;;;0.80;;
29238;SDS011;16267;48.194;11.546;2023-05-10T11:36:23;2.55;;;0.95;;
29238;SDS011;16267;48.194;11.546;2023-05-10T11:38:53;3.63;;;1.23;;
29238;SDS011;16267;48.194;11.546;2023-05-10T11:41:21;5.13;;;1.30;;
29238;SDS011;16267;48.194;11.546;2023-05-10T11:43:52;2.70;;;1.00;;
29238;SDS011;16267;48.194;11.546;2023-05-10T11:46:20;2.38;;;1.23;;
29238;SDS011;16267;48.194;11.546;2023-05-10T11:48:49;2.63;;;1.08;;
29238;SDS011;16267;48.194;11.546;2023-05-10T11:51:20;5.40;;;1.88;;
29238;SDS011;16267;48.194;11.546;2023-05-10T11:53:47;5.07;;;1.33;;
29238;SDS011;16267;48.194;11.546;2023-05-10T11:56:17;3.38;;;1.00;;
29238;SDS011;16267;48.194;11.546;2023-05-10T11:58:43;6.40;;;1.13;;
29238;SDS011;16267;48.194;11.546;2023-05-10T12:01:09;6.63;;;1.27;;
29238;SDS011;16267;48.194;11.546;2023-05-10T12:03:35;2.40;;;0.80;;
29238;SDS011;16267;48.194;11.546;2023-05-10T12:06:02;5.13;;;1.30;;
29238;SDS011;16267;48.194;11.546;2023-05-10T12:08:30;2.50;;;0.70;;
29238;SDS011;16267;48.194;11.546;2023-05-10T12:11:05;2.80;;;0.85;;
29238;SDS011;16267;48.194;11.546;2023-05-10T12:13:40;21.40;;;1.20;;
29238;SDS011;16267;48.194;11.546;2023-05-10T12:16:18;3.28;;;0.85;;
29238;SDS011;16267;48.194;11.546;2023-05-10T12:18:51;3.40;;;1.15;;
29238;SDS011;16267;48.194;11.546;2023-05-10T12:21:18;6.13;;;1.15;;
29238;SDS011;16267;48.194;11.546;2023-05-10T12:23:46;8.77;;;2.00;;
29238;SDS011;16267;48.194;11.546;2023-05-10T12:26:18;5.70;;;1.50;;
29238;SDS011;16267;48.194;11.546;2023-05-10T12:28:47;8.27;;;1.30;;
29238;SDS011;16267;48.194;11.546;2023-05-10T12:31:12;3.78;;;2.03;;
29238;SDS011;16267;48.194;11.546;2023-05-10T12:33:39;4.53;;;1.40;;
29238;SDS011;16267;48.194;11.546;2023-05-10T12:36:08;4.30;;;1.63;;
29238;SDS011;16267;48.194;11.546;2023-05-10T12:38:36;4.20;;;1.50;;
29238;SDS011;16267;48.194;11.546;2023-05-10T12:41:08;6.72;;;1.40;;
29238;SDS011;16267;48.194;11.546;2023-05-10T12:43:36;2.70;;;1.00;;
29238;SDS011;16267;48.194;11.546;2023-05-10T12:46:07;2.85;;;0.80;;
29238;SDS011;16267;48.194;11.546;2023-05-10T12:48:38;0.80;;;0.60;;
29238;SDS011;16267;48.194;11.546;2023-05-10T12:51:05;3.25;;;0.60;;
29238;SDS011;16267;48.194;11.546;2023-05-10T12:53:36;6.72;;;0.70;;
29238;SDS011;16267;48.194;11.546;2023-05-10T12:56:03;0.45;;;0.45;;
29238;SDS011;16267;48.194;11.546;2023-05-10T12:58:29;0.93;;;0.50;;
29238;SDS011;16267;48.194;11.546;2023-05-10T13:00:57;4.03;;;0.57;;
29238;SDS011;16267;48.194;11.546;2023-05-10T13:03:24;4.43;;;0.50;;
29238;SDS011;16267;48.194;11.546;2023-05-10T13:05:50;1.48;;;0.70;;
29238;SDS011;16267;48.194;11.546;2023-05-10T13:08:16;3.60;;;0.57;;
29238;SDS011;16267;48.194;11.546;2023-05-10T13:10:41;2.40;;;0.40;;
29238;SDS011;16267;48.194;11.546;2023-05-10T13:13:07;2.70;;;0.60;;
29238;SDS011;16267;48.194;11.546;2023-05-10T13:15:33;5.53;;;0.60;;
29238;SDS011;16267;48.194;11.546;2023-05-10T13:17:59;4.10;;;0.60;;
29238;SDS011;16267;48.194;11.546;2023-05-10T13:20:25;3.88;;;0.93;;
29238;SDS011;16267;48.194;11.546;2023-05-10T13:22:51;4.50;;;0.82;;
29238;SDS011;16267;48.194;11.546;2023-05-10T13:25:18;2.17;;;0.63;;
29238;SDS011;16267;48.194;11.546;2023-05-10T13:27:43;2.15;;;0.50;;
29238;SDS011;16267;48.194;11.546;2023-05-10T13:30:09;2.28;;;0.60;;
29238;SDS011;16267;48.194;11.546;2023-05-10T13:32:36;2.35;;;0.60;;
29238;SDS011;16267;48.194;11.546;2023-05-10T13:35:02;9.30;;;1.10;;
29238;SDS011;16267;48.194;11.546;2023-05-10T13:37:29;2.70;;;0.57;;
29238;SDS011;16267;48.194;11.546;2023-05-10T13:39:56;3.38;;;0.77;;
29238;SDS011;16267;48.194;11.546;2023-05-10T13:42:22;1.48;;;0.80;;
29238;SDS011;16267;48.194;11.546;2023-05-10T13:44:49;2.10;;;0.90;;
29238;SDS011;16267;48.194;11.546;2023-05-10T13:47:15;2.00;;;0.70;;
29238;SDS011;16267;48.194;11.546;2023-05-10T13:49:41;2.08;;;0.90;;
29238;SDS011;16267;48.194;11.546;2023-05-10T13:52:09;1.45;;;0.82;;
29238;SDS011;16267;48.194;11.546;2023-05-10T13:54:36;3.25;;;1.30;;
29238;SDS011;16267;48.194;11.546;2023-05-10T13:57:03;3.25;;;1.67;;
29238;SDS011;16267;48.194;11.546;2023-05-10T13:59:29;2.63;;;1.17;;
29238;SDS011;16267;48.194;11.546;2023-05-10T14:01:56;3.05;;;1.60;;
29238;SDS011;16267;48.194;11.546;2023-05-10T14:04:23;3.17;;;0.90;;
29238;SDS011;16267;48.194;11.546;2023-05-10T14:06:49;4.80;;;1.40;;
29238;SDS011;16267;48.194;11.546;2023-05-10T14:09:15;1.77;;;1.02;;
29238;SDS011;16267;48.194;11.546;2023-05-10T14:11:41;3.15;;;1.30;;
29238;SDS011;16267;48.194;11.546;2023-05-10T14:14:08;3.03;;;1.10;;
29238;SDS011;16267;48.194;11.546;2023-05-10T14:16:34;5.13;;;1.30;;
29238;SDS011;16267;48.194;11.546;2023-05-10T14:19:00;2.67;;;1.20;;
29238;SDS011;16267;48.194;11.546;2023-05-10T14:21:26;5.80;;;1.30;;
29238;SDS011;16267;48.194;11.546;2023-05-10T14:23:54;2.90;;;1.45;;
29238;SDS011;16267;48.194;11.546;2023-05-10T14:26:20;3.67;;;1.33;;
29238;SDS011;16267;48.194;11.546;2023-05-10T14:28:46;3.15;;;1.20;;
29238;SDS011;16267;48.194;11.546;2023-05-10T14:31:12;3.53;;;1.13;;
29238;SDS011;16267;48.194;11.546;2023-05-10T14:33:39;3.95;;;1.13;;
29238;SDS011;16267;48.194;11.546;2023-05-10T14:36:05;1.60;;;0.90;;
29238;SDS011;16267;48.194;11.546;2023-05-10T14:38:32;4.30;;;1.00;;
29238;SDS011;16267;48.194;11.546;2023-05-10T14:40:58;4.55;;;1.20;;
29238;SDS011;16267;48.194;11.546;2023-05-10T14:43:23;3.10;;;1.00;;
29238;SDS011;16267;48.194;11.546;2023-05-10T14:45:49;3.47;;;0.90;;
29238;SDS011;16267;48.194;11.546;2023-05-10T14:48:15;3.00;;;0.95;;
29238;SDS011;16267;48.194;11.546;2023-05-10T14:50:42;3.15;;;0.70;;
29238;SDS011;16267;48.194;11.546;2023-05-10T14:53:09;5.47;;;1.02;;
29238;SDS011;16267;48.194;11.546;2023-05-10T14:55:35;2.65;;;0.70;;
29238;SDS011;16267;48.194;11.546;2023-05-10T14:58:01;2.35;;;0.90;;
29238;SDS011;16267;48.194;11.546;2023-05-10T15:00:28;2.17;;;0.70;;
29238;SDS011;16267;48.194;11.546;2023-05-10T15:02:55;3.53;;;1.10;;
29238;SDS011;16267;48.194;11.546;2023-05-10T15:05:21;6.68;;;0.80;;
29238;SDS011;16267;48.194;11.546;2023-05-10T15:07:47;6.75;;;0.90;;
29238;SDS011;16267;48.194;11.546;2023-05-10T15:10:13;7.03;;;1.95;;
29238;SDS011;16267;48.194;11.546;2023-05-10T15:12:39;1.70;;;0.80;;
29238;SDS011;16267;48.194;11.546;2023-05-10T15:15:05;2.80;;;0.80;;
29238;SDS011;16267;48.194;11.546;2023-05-10T15:17:32;4.63;;;1.15;;
29238;SDS011;16267;48.194;11.546;2023-05-10T15:19:58;2.40;;;0.77;;
29238;SDS011;16267;48.194;11.546;2023-05-10T15:22:24;1.58;;;0.88;;
29238;SDS011;16267;48.194;11.546;2023-05-10T15:24:49;4.90;;;1.40;;